This is the latest recevied weather packets stored in our database for station/object CA2JAT-13. If no packets are shown the sender has not sent any weather packets the latest 10 day(s).
| Time | Temp. | Humidity | Pressure | Rain* | Wind** | Luminosity | Snow |
|---|---|---|---|---|---|---|---|
| 1778267268 | 26.67° C | 13% | 1010.7 hPa | 0 mm | - | 558 W/m² | - |
| 1778265464 | 26.67° C | 14% | 1010.8 hPa | 0 mm | - | 614 W/m² | - |
| 1778263661 | 25.56° C | 13% | 1011.4 hPa | 0 mm | - | 642 W/m² | - |
| 1778261857 | 25.56° C | 14% | 1011.6 hPa | 0 mm | - | 650 W/m² | - |
| 1778260052 | 23.89° C | 16% | 1012.7 hPa | 0 mm | - | 645 W/m² | - |
| 1778258249 | 22.78° C | 19% | 1013.3 hPa | 0 mm | - | 628 W/m² | - |
| 1778256446 | 20.56° C | 23% | 1014.1 hPa | 0 mm | - | 605 W/m² | - |
| 1778254642 | 18.89° C | 26% | 1014.9 hPa | 0 mm | - | 251 W/m² | - |
| 1778252838 | 17.78° C | 31% | 1016.1 hPa | 0 mm | - | 360 W/m² | - |
| 1778251035 | 17.22° C | 38% | 1016.3 hPa | 0 mm | - | 287 W/m² | - |
| 1778249231 | 16.67° C | 35% | 1016.7 hPa | 0 mm | - | 391 W/m² | - |
| 1778247428 | 12.22° C | 51% | 1018 hPa | 0 mm | - | 224 W/m² | - |
| 1778245574 | 9.44° C | 62% | 1018.6 hPa | 0 mm | - | 197 W/m² | - |
| 1778243771 | 6.11° C | 74% | 1019.1 hPa | 0 mm | - | 23 W/m² | - |
| 1778241967 | 6.67° C | 74% | 1018.8 hPa | 0 mm | - | 17 W/m² | - |
| 1778240163 | 6.67° C | 73% | 1018.3 hPa | 0 mm | - | 0 W/m² | - |
| 1778238360 | 7.22° C | 71% | 1018.3 hPa | 0 mm | - | 0 W/m² | - |
| 1778236556 | 7.22° C | 71% | 1018.2 hPa | 0 mm | - | 0 W/m² | - |
| 1778234753 | 6.67° C | 73% | 1018.4 hPa | 0 mm | - | 0 W/m² | - |
| 1778232942 | 6.67° C | 73% | 1018.4 hPa | 0 mm | - | 0 W/m² | - |
| 1778231138 | 6.67° C | 73% | 1018.2 hPa | 0 mm | - | 0 W/m² | - |
| 1778229334 | 6.67° C | 75% | 1018.5 hPa | 0 mm | - | 0 W/m² | - |
| 1778227531 | 7.22° C | 73% | 1018.7 hPa | 0 mm | - | 0 W/m² | - |
| 1778225727 | 7.22° C | 73% | 1019.5 hPa | 0 mm | - | 0 W/m² | - |
| 1778223924 | 7.78° C | 72% | 1019.4 hPa | 0 mm | - | 0 W/m² | - |
* Rain latest hour (hover to see other rain measurements)
** Current wind speed in m/s (hover to see current wind gust speed)